createdAt,value
2024-01-16T00:01:06.071Z,3.50
2024-01-16T00:03:12.949Z,3.50
2024-01-16T00:05:14.844Z,3.43
2024-01-16T00:07:16.703Z,3.40
2024-01-16T00:09:18.434Z,3.41
2024-01-16T00:11:20.206Z,3.34
2024-01-16T00:13:21.929Z,3.40
2024-01-16T00:15:23.695Z,3.38
2024-01-16T00:17:25.542Z,3.43
2024-01-16T00:19:28.700Z,3.41
2024-01-16T00:21:30.526Z,3.48
2024-01-16T00:23:33.836Z,3.47
2024-01-16T00:25:35.861Z,3.54
2024-01-16T00:27:37.653Z,3.48
2024-01-16T00:29:39.825Z,3.42
2024-01-16T00:31:41.648Z,3.37
2024-01-16T00:33:43.906Z,3.16
2024-01-16T00:35:45.845Z,3.29
2024-01-16T00:37:47.732Z,3.36
2024-01-16T00:39:49.416Z,3.13
2024-01-16T00:41:51.248Z,3.11
2024-01-16T00:43:53.107Z,3.12
2024-01-16T00:45:55.112Z,3.22
2024-01-16T00:47:57.132Z,3.17
2024-01-16T00:50:01.484Z,3.27
2024-01-16T00:52:03.486Z,3.28
2024-01-16T00:54:07.464Z,3.32
2024-01-16T00:56:09.458Z,3.25
2024-01-16T00:58:11.364Z,3.28
2024-01-16T01:00:13.860Z,3.18
2024-01-16T01:02:16.402Z,3.21
2024-01-16T01:04:18.214Z,3.20
2024-01-16T01:06:20.350Z,3.10
2024-01-16T01:08:22.459Z,3.11
2024-01-16T01:10:24.583Z,3.07
2024-01-16T01:12:26.331Z,3.03
2024-01-16T01:14:30.588Z,3.03
2024-01-16T01:16:33.114Z,3.05
2024-01-16T01:18:35.146Z,3.06
2024-01-16T01:20:36.986Z,3.01
2024-01-16T01:22:38.845Z,3.02
2024-01-16T01:24:40.697Z,3.06
2024-01-16T01:26:45.655Z,3.01
2024-01-16T01:28:47.667Z,3.08
2024-01-16T01:30:49.436Z,3.16
2024-01-16T01:32:51.329Z,3.17
2024-01-16T01:34:53.133Z,3.09
2024-01-16T01:36:55.077Z,3.13
2024-01-16T01:38:56.811Z,2.98
2024-01-16T01:40:58.846Z,3.02
2024-01-16T01:43:27.204Z,3.04
2024-01-16T01:45:28.925Z,3.08
2024-01-16T01:47:32.432Z,3.09
2024-01-16T01:49:34.364Z,3.08
2024-01-16T01:51:36.274Z,3.08
2024-01-16T01:53:39.748Z,3.03
2024-01-16T01:55:42.857Z,2.95
2024-01-16T01:57:44.833Z,2.98
2024-01-16T01:59:47.429Z,2.95
2024-01-16T02:01:51.117Z,3.01
2024-01-16T02:03:53.923Z,3.03
2024-01-16T02:05:57.183Z,2.96
2024-01-16T02:07:59.556Z,2.91
2024-01-16T02:10:01.725Z,2.99
2024-01-16T02:12:03.631Z,3.00
2024-01-16T02:14:05.392Z,3.08
2024-01-16T02:16:17.973Z,2.93
2024-01-16T02:18:19.864Z,3.08
2024-01-16T02:20:22.003Z,3.01
2024-01-16T02:22:30.247Z,3.03
2024-01-16T02:24:32.195Z,3.04
2024-01-16T02:26:34.864Z,3.12
2024-01-16T02:28:36.607Z,3.05
2024-01-16T02:30:38.558Z,3.11
2024-01-16T02:32:40.448Z,3.13
2024-01-16T02:34:42.926Z,3.11
2024-01-16T02:36:44.679Z,3.16
2024-01-16T02:38:46.941Z,3.10
2024-01-16T02:40:48.935Z,3.19
2024-01-16T02:42:50.770Z,2.99
2024-01-16T02:44:52.598Z,3.03
2024-01-16T02:46:54.411Z,2.96
2024-01-16T02:48:56.172Z,2.87
2024-01-16T02:50:57.948Z,2.76
2024-01-16T02:52:59.767Z,2.73
2024-01-16T02:55:01.451Z,2.81
2024-01-16T02:57:03.283Z,2.81
2024-01-16T02:59:05.064Z,2.78
2024-01-16T03:01:16.125Z,2.75
2024-01-16T03:03:18.585Z,2.77
2024-01-16T03:05:20.794Z,2.66
2024-01-16T03:07:22.534Z,2.73
2024-01-16T03:09:24.276Z,2.69
2024-01-16T03:11:26.031Z,2.80
2024-01-16T03:13:27.754Z,2.82
2024-01-16T03:15:31.997Z,2.74
2024-01-16T03:17:33.707Z,2.67
2024-01-16T03:19:35.475Z,2.58
2024-01-16T03:21:37.236Z,2.70
2024-01-16T03:23:38.927Z,2.75
2024-01-16T03:25:40.843Z,2.78
2024-01-16T03:27:42.577Z,2.55
2024-01-16T03:29:44.408Z,2.52
2024-01-16T03:31:46.308Z,2.38
2024-01-16T03:33:48.214Z,2.54
2024-01-16T03:35:50.116Z,2.62
2024-01-16T03:37:51.942Z,2.69
2024-01-16T03:39:55.989Z,2.69
2024-01-16T03:41:58.160Z,2.65
2024-01-16T03:43:59.905Z,2.65
2024-01-16T03:46:01.819Z,2.68
2024-01-16T03:48:04.810Z,2.57
2024-01-16T03:50:07.350Z,2.58
2024-01-16T03:52:09.317Z,2.69
2024-01-16T03:54:11.035Z,2.72
2024-01-16T03:56:13.350Z,2.60
2024-01-16T03:58:15.466Z,2.54
2024-01-16T04:00:17.771Z,2.51
2024-01-16T04:02:19.521Z,2.57
2024-01-16T04:04:21.435Z,2.55
2024-01-16T04:06:23.326Z,2.63
2024-01-16T04:08:25.074Z,2.60
2024-01-16T04:10:26.927Z,2.48
2024-01-16T04:12:28.780Z,2.42
2024-01-16T04:14:30.683Z,2.34
2024-01-16T04:16:32.539Z,2.47
2024-01-16T04:18:38.147Z,2.57
2024-01-16T04:20:39.996Z,2.56
2024-01-16T04:22:42.034Z,2.59
2024-01-16T04:24:43.831Z,2.54
2024-01-16T04:26:46.377Z,2.65
2024-01-16T04:28:49.227Z,2.66
2024-01-16T04:30:51.380Z,2.54
2024-01-16T04:32:53.271Z,2.48
2024-01-16T04:34:55.793Z,2.46
2024-01-16T04:36:57.600Z,2.46
2024-01-16T04:39:04.801Z,2.40
2024-01-16T04:41:06.651Z,2.47
2024-01-16T04:43:08.653Z,2.27
2024-01-16T04:45:14.283Z,2.48
2024-01-16T04:47:16.135Z,2.49
2024-01-16T04:49:17.898Z,2.54
2024-01-16T04:51:19.792Z,2.51
2024-01-16T04:53:21.508Z,2.39
2024-01-16T04:55:23.225Z,2.47
2024-01-16T04:57:24.997Z,2.45
2024-01-16T04:59:26.731Z,2.50
2024-01-16T05:01:28.470Z,2.45
2024-01-16T05:03:30.306Z,2.47
2024-01-16T05:05:32.153Z,2.37
2024-01-16T05:07:34.075Z,2.47
2024-01-16T05:09:35.851Z,2.52
2024-01-16T05:11:37.837Z,2.52
2024-01-16T05:13:39.866Z,2.34
2024-01-16T05:15:42.126Z,2.22
2024-01-16T05:17:43.967Z,2.33
2024-01-16T05:19:46.034Z,2.31
2024-01-16T05:21:47.804Z,2.13
2024-01-16T05:23:49.684Z,2.18
2024-01-16T05:25:51.723Z,2.28
2024-01-16T05:27:53.477Z,2.19
2024-01-16T05:29:55.865Z,2.23
2024-01-16T05:31:57.700Z,2.00
2024-01-16T05:33:59.595Z,2.07
2024-01-16T05:36:01.590Z,1.91
2024-01-16T05:38:04.991Z,1.95
2024-01-16T05:40:09.066Z,2.13
2024-01-16T05:42:12.434Z,2.15
2024-01-16T05:44:14.202Z,2.05
2024-01-16T05:46:16.056Z,1.91
2024-01-16T05:48:18.062Z,1.96
2024-01-16T05:50:24.288Z,2.06
2024-01-16T05:52:26.214Z,2.01
2024-01-16T05:54:28.749Z,2.06
2024-01-16T05:56:32.126Z,1.99
2024-01-16T05:58:38.330Z,2.07
2024-01-16T06:00:40.843Z,2.09
2024-01-16T06:02:42.675Z,1.91
2024-01-16T06:04:44.590Z,2.00
2024-01-16T06:06:49.114Z,1.94
2024-01-16T06:08:51.117Z,2.05
2024-01-16T06:10:52.882Z,2.05
2024-01-16T06:12:54.917Z,2.06
2024-01-16T06:14:56.917Z,2.13
2024-01-16T06:16:58.867Z,2.12
2024-01-16T06:19:05.982Z,2.02
2024-01-16T06:21:07.864Z,2.11
2024-01-16T06:23:09.681Z,2.08
2024-01-16T06:25:11.752Z,2.18
2024-01-16T06:27:20.231Z,2.25
2024-01-16T06:29:31.592Z,2.19
2024-01-16T06:31:36.911Z,2.27
2024-01-16T06:33:39.004Z,2.25
2024-01-16T06:35:41.560Z,2.33
2024-01-16T06:37:44.959Z,2.21
2024-01-16T06:39:46.662Z,2.18
2024-01-16T06:41:48.491Z,2.15
2024-01-16T06:43:50.242Z,2.07
2024-01-16T06:45:52.168Z,1.94
2024-01-16T06:47:54.007Z,2.14
2024-01-16T06:49:55.957Z,2.17
2024-01-16T06:51:58.786Z,2.14
2024-01-16T06:54:00.680Z,2.11
2024-01-16T06:56:02.445Z,2.15
2024-01-16T06:58:04.415Z,2.19
2024-01-16T07:00:10.135Z,2.30
2024-01-16T07:02:11.944Z,2.30
2024-01-16T07:04:15.765Z,2.29
2024-01-16T07:06:20.523Z,2.35
2024-01-16T07:08:22.730Z,2.25
2024-01-16T07:10:25.442Z,2.34
2024-01-16T07:12:28.301Z,2.36
2024-01-16T07:14:30.210Z,2.39
2024-01-16T07:16:32.104Z,2.34
2024-01-16T07:18:34.744Z,2.34
2024-01-16T07:20:40.797Z,2.38
2024-01-16T07:22:42.578Z,2.29
2024-01-16T07:24:49.912Z,2.25
2024-01-16T07:26:51.778Z,2.20
2024-01-16T07:28:53.543Z,2.15
2024-01-16T07:30:55.787Z,2.21
2024-01-16T07:32:57.612Z,2.06
2024-01-16T07:34:59.451Z,2.05
2024-01-16T07:37:01.272Z,2.09
2024-01-16T07:39:05.058Z,2.08
2024-01-16T07:41:07.313Z,2.24
2024-01-16T07:43:09.033Z,2.14
2024-01-16T07:45:11.995Z,2.17
2024-01-16T07:47:13.797Z,2.21
2024-01-16T07:49:15.661Z,2.22
2024-01-16T07:51:17.613Z,2.26
2024-01-16T07:53:19.531Z,2.21
2024-01-16T07:55:24.284Z,2.19
2024-01-16T07:57:26.948Z,2.15
2024-01-16T07:59:28.814Z,2.11
2024-01-16T08:01:31.149Z,2.04
2024-01-16T08:03:33.211Z,1.99
2024-01-16T08:05:35.044Z,1.87
2024-01-16T08:07:36.969Z,1.81
2024-01-16T08:09:38.866Z,1.95
2024-01-16T08:11:41.016Z,1.99
2024-01-16T08:13:42.952Z,1.91
2024-01-16T08:15:44.702Z,1.90
2024-01-16T08:17:46.608Z,2.00
2024-01-16T08:19:48.520Z,1.97
2024-01-16T08:21:50.346Z,1.98
2024-01-16T08:23:53.812Z,1.92
2024-01-16T08:25:55.929Z,2.10
2024-01-16T08:27:57.785Z,2.04
2024-01-16T08:29:59.729Z,2.09
2024-01-16T08:32:01.480Z,2.14
2024-01-16T08:34:03.718Z,2.16
2024-01-16T08:36:05.976Z,2.19
2024-01-16T08:38:07.689Z,2.22
2024-01-16T08:40:17.458Z,2.05
2024-01-16T08:42:19.520Z,2.17
2024-01-16T08:44:21.456Z,2.24
2024-01-16T08:46:24.021Z,2.24
2024-01-16T08:48:26.991Z,2.35
2024-01-16T08:50:30.358Z,2.37
2024-01-16T08:52:32.618Z,2.38
2024-01-16T08:54:34.409Z,2.39
2024-01-16T08:56:36.183Z,2.41
2024-01-16T08:58:39.309Z,2.30
2024-01-16T09:00:46.377Z,2.34
2024-01-16T09:02:49.944Z,2.37
2024-01-16T09:04:53.139Z,2.45
2024-01-16T09:06:55.392Z,2.30
2024-01-16T09:09:04.430Z,2.43
2024-01-16T09:11:06.129Z,2.48
2024-01-16T09:13:08.455Z,2.47
2024-01-16T09:15:10.785Z,2.46
2024-01-16T09:17:12.884Z,2.41
2024-01-16T09:19:15.926Z,2.36
2024-01-16T09:21:17.677Z,2.33
2024-01-16T09:23:19.536Z,2.46
2024-01-16T09:25:22.276Z,2.31
2024-01-16T09:27:24.118Z,2.28
2024-01-16T09:29:25.994Z,2.39
2024-01-16T09:31:27.764Z,2.54
2024-01-16T09:33:29.861Z,2.58
2024-01-16T09:35:32.061Z,2.70
2024-01-16T09:37:33.967Z,2.74
2024-01-16T09:39:37.430Z,2.87
2024-01-16T09:41:39.653Z,2.84
2024-01-16T09:43:42.846Z,2.83
2024-01-16T09:45:45.607Z,2.86
2024-01-16T09:47:53.648Z,2.79
2024-01-16T09:49:57.508Z,2.91
2024-01-16T09:52:03.191Z,2.93
2024-01-16T09:54:09.984Z,2.88
2024-01-16T09:56:25.626Z,2.82
2024-01-16T09:58:30.036Z,2.87
2024-01-16T10:00:32.877Z,2.87
2024-01-16T10:02:35.397Z,2.69
2024-01-16T10:04:38.002Z,2.68
2024-01-16T10:06:40.847Z,2.92
2024-01-16T10:08:42.750Z,2.97
2024-01-16T10:10:49.001Z,3.12
2024-01-16T10:12:52.300Z,3.08
2024-01-16T10:14:55.652Z,3.23
2024-01-16T10:17:01.078Z,3.37
2024-01-16T10:19:09.454Z,3.43
2024-01-16T10:21:33.632Z,3.58
2024-01-16T10:23:35.577Z,3.59
2024-01-16T10:25:38.891Z,3.76
2024-01-16T10:27:41.565Z,3.85
2024-01-16T10:29:58.178Z,3.86
2024-01-16T10:32:00.636Z,3.77
2024-01-16T10:34:04.139Z,3.87
2024-01-16T10:36:18.012Z,3.93
2024-01-16T10:38:23.896Z,4.05
2024-01-16T10:40:27.865Z,4.09
2024-01-16T10:42:30.588Z,4.09
2024-01-16T10:44:33.355Z,4.26
2024-01-16T10:46:36.581Z,4.20
2024-01-16T10:48:39.711Z,4.07
2024-01-16T10:50:42.190Z,4.21
2024-01-16T10:52:55.371Z,4.22
2024-01-16T10:54:58.379Z,4.32
2024-01-16T10:57:00.597Z,4.20
2024-01-16T10:59:17.936Z,4.30
2024-01-16T11:01:19.883Z,4.47
2024-01-16T11:03:31.474Z,4.58
2024-01-16T11:05:34.740Z,4.74
2024-01-16T11:07:37.998Z,4.83
2024-01-16T11:09:41.188Z,4.73
2024-01-16T11:11:46.135Z,4.80
2024-01-16T11:13:48.209Z,4.90
2024-01-16T11:15:50.969Z,4.92
2024-01-16T11:17:54.058Z,5.05
2024-01-16T11:20:07.902Z,5.04
2024-01-16T11:22:20.008Z,5.26
2024-01-16T11:24:22.091Z,5.39
2024-01-16T11:26:37.878Z,5.43
2024-01-16T11:28:39.868Z,5.57
2024-01-16T11:30:44.271Z,5.59
2024-01-16T11:32:46.240Z,5.51
2024-01-16T11:34:53.454Z,5.58
2024-01-16T11:36:56.732Z,5.85
2024-01-16T11:39:12.107Z,5.97
2024-01-16T11:41:50.603Z,5.98
2024-01-16T11:43:52.374Z,5.96
2024-01-16T11:45:56.454Z,6.13
2024-01-16T11:48:15.816Z,6.13
2024-01-16T11:50:29.265Z,5.99
2024-01-16T11:52:45.155Z,6.13
2024-01-16T11:54:47.750Z,6.09
2024-01-16T11:57:01.964Z,6.12
2024-01-16T11:59:41.309Z,6.22
2024-01-16T12:01:46.233Z,6.37
2024-01-16T12:03:48.152Z,6.31
2024-01-16T12:06:03.928Z,6.55
2024-01-16T12:08:07.447Z,6.54
2024-01-16T12:10:10.719Z,6.52
2024-01-16T12:12:16.687Z,6.62
2024-01-16T12:14:18.515Z,6.59
2024-01-16T12:16:20.908Z,6.77
2024-01-16T12:18:30.995Z,6.71
2024-01-16T12:20:41.366Z,6.83
2024-01-16T12:22:43.622Z,6.71
2024-01-16T12:24:46.587Z,6.85
2024-01-16T12:26:48.376Z,6.99
2024-01-16T12:29:03.315Z,7.05
2024-01-16T12:31:06.605Z,7.01
2024-01-16T12:33:14.072Z,7.04
2024-01-16T12:35:22.016Z,7.12
2024-01-16T12:37:23.955Z,7.22
2024-01-16T12:39:25.763Z,7.26
2024-01-16T12:41:36.863Z,7.34
2024-01-16T12:43:43.902Z,7.36
2024-01-16T12:45:46.493Z,7.48
2024-01-16T12:47:55.021Z,7.51
2024-01-16T12:49:56.945Z,7.71
2024-01-16T12:52:19.606Z,7.85
2024-01-16T12:54:23.638Z,7.75
2024-01-16T12:56:37.437Z,7.96
2024-01-16T12:58:41.709Z,8.01
2024-01-16T13:00:48.020Z,8.12
2024-01-16T13:02:54.259Z,8.03
2024-01-16T13:05:01.185Z,8.15
2024-01-16T13:07:04.964Z,8.30
2024-01-16T13:09:21.250Z,8.27
2024-01-16T13:11:35.035Z,8.34
2024-01-16T13:13:41.945Z,8.31
2024-01-16T13:15:45.546Z,8.20
2024-01-16T13:17:49.269Z,8.18
2024-01-16T13:19:52.039Z,8.36
2024-01-16T13:21:56.805Z,8.28
2024-01-16T13:23:58.512Z,8.45
2024-01-16T13:26:00.757Z,8.35
2024-01-16T13:28:04.016Z,8.38
2024-01-16T13:30:07.290Z,8.39
2024-01-16T13:32:09.109Z,8.34
2024-01-16T13:34:10.945Z,8.39
2024-01-16T13:36:13.163Z,8.52
2024-01-16T13:38:18.539Z,8.58
2024-01-16T13:40:28.362Z,8.54
2024-01-16T13:42:30.272Z,8.66
2024-01-16T13:44:32.398Z,8.65
2024-01-16T13:46:49.355Z,8.68
2024-01-16T13:49:06.561Z,8.77
2024-01-16T13:51:08.675Z,8.73
2024-01-16T13:53:10.502Z,8.69
2024-01-16T13:55:12.604Z,8.70
2024-01-16T13:57:14.589Z,8.51
2024-01-16T13:59:16.393Z,8.56
2024-01-16T14:01:18.219Z,8.47
2024-01-16T14:03:21.064Z,8.60
2024-01-16T14:05:23.029Z,8.69
2024-01-16T14:07:24.911Z,8.78
2024-01-16T14:09:26.618Z,8.78
2024-01-16T14:11:28.328Z,8.73
2024-01-16T14:13:31.082Z,8.71
2024-01-16T14:15:32.853Z,8.74
2024-01-16T14:17:35.259Z,8.70
2024-01-16T14:19:38.002Z,8.58
2024-01-16T14:21:39.720Z,8.78
2024-01-16T14:23:41.522Z,8.73
2024-01-16T14:25:43.454Z,8.72
2024-01-16T14:27:46.910Z,8.73
2024-01-16T14:29:48.777Z,8.88
2024-01-16T14:31:51.059Z,8.85
2024-01-16T14:33:52.959Z,8.71
2024-01-16T14:35:56.196Z,8.84
2024-01-16T14:37:58.135Z,8.73
2024-01-16T14:40:03.291Z,8.73
2024-01-16T14:42:05.458Z,8.68
2024-01-16T14:44:10.845Z,8.80
2024-01-16T14:46:12.810Z,8.67
2024-01-16T14:48:17.438Z,8.62
2024-01-16T14:50:29.277Z,8.65
2024-01-16T14:52:34.875Z,8.54
2024-01-16T14:54:36.598Z,8.48
2024-01-16T14:56:38.812Z,8.30
2024-01-16T14:58:40.704Z,8.45
2024-01-16T15:00:47.507Z,8.33
2024-01-16T15:02:49.532Z,8.23
2024-01-16T15:04:51.318Z,8.17
2024-01-16T15:06:54.461Z,8.11
2024-01-16T15:08:59.644Z,7.82
2024-01-16T15:11:01.440Z,7.73
2024-01-16T15:13:03.269Z,7.74
2024-01-16T15:15:06.914Z,7.68
2024-01-16T15:17:08.848Z,7.61
2024-01-16T15:19:11.232Z,7.56
2024-01-16T15:21:13.061Z,7.61
2024-01-16T15:23:15.037Z,7.52
2024-01-16T15:25:17.926Z,7.36
2024-01-16T15:27:21.239Z,7.40
2024-01-16T15:29:27.716Z,7.13
2024-01-16T15:31:29.498Z,7.14
2024-01-16T15:33:31.220Z,7.21
2024-01-16T15:35:33.377Z,7.29
2024-01-16T15:37:36.052Z,7.22
2024-01-16T15:39:37.697Z,7.26
2024-01-16T15:41:39.909Z,7.23
2024-01-16T15:43:41.788Z,7.29
2024-01-16T15:45:44.195Z,7.23
2024-01-16T15:47:49.598Z,7.27
2024-01-16T15:49:57.691Z,7.21
2024-01-16T15:52:03.276Z,7.05
2024-01-16T15:54:12.465Z,6.95
2024-01-16T15:56:31.109Z,6.93
2024-01-16T15:58:47.650Z,7.05
2024-01-16T16:00:52.424Z,7.01
2024-01-16T16:02:54.584Z,7.03
2024-01-16T16:04:56.675Z,6.89
2024-01-16T16:06:58.577Z,6.92
2024-01-16T16:09:01.028Z,6.98
2024-01-16T16:11:03.144Z,7.02
2024-01-16T16:13:05.598Z,7.06
2024-01-16T16:15:07.545Z,6.74
2024-01-16T16:17:09.946Z,6.78
2024-01-16T16:19:12.518Z,6.71
2024-01-16T16:21:15.266Z,6.83
2024-01-16T16:23:17.318Z,6.69
2024-01-16T16:25:19.121Z,6.68
2024-01-16T16:27:27.865Z,6.71
2024-01-16T16:29:29.838Z,6.77
2024-01-16T16:31:32.433Z,6.78
2024-01-16T16:33:34.473Z,6.58
2024-01-16T16:35:36.276Z,6.61
2024-01-16T16:37:38.209Z,6.51
2024-01-16T16:39:40.837Z,6.52
2024-01-16T16:41:42.705Z,6.49
2024-01-16T16:43:44.703Z,6.37
2024-01-16T16:45:46.843Z,6.35
2024-01-16T16:47:48.700Z,6.32
2024-01-16T16:49:50.436Z,6.28
2024-01-16T16:51:52.625Z,6.24
2024-01-16T16:53:55.511Z,6.21
2024-01-16T16:55:57.487Z,6.14
2024-01-16T16:57:59.974Z,6.05
2024-01-16T17:00:01.953Z,6.11
2024-01-16T17:02:05.208Z,6.01
2024-01-16T17:04:07.964Z,5.96
2024-01-16T17:06:10.177Z,5.96
2024-01-16T17:08:13.175Z,5.97
2024-01-16T17:10:22.631Z,5.97
2024-01-16T17:12:24.421Z,5.93
2024-01-16T17:14:26.527Z,5.93
2024-01-16T17:16:29.699Z,6.04
2024-01-16T17:18:36.994Z,6.08
2024-01-16T17:20:39.064Z,6.15
2024-01-16T17:22:41.625Z,6.08
2024-01-16T17:24:44.277Z,6.03
2024-01-16T17:26:46.511Z,6.05
2024-01-16T17:28:48.251Z,5.92
2024-01-16T17:30:56.942Z,5.99
2024-01-16T17:32:58.979Z,5.97
2024-01-16T17:35:00.832Z,5.83
2024-01-16T17:37:02.574Z,5.90
2024-01-16T17:39:10.329Z,5.66
2024-01-16T17:41:12.512Z,5.80
2024-01-16T17:43:14.344Z,5.83
2024-01-16T17:45:16.856Z,5.73
2024-01-16T17:47:19.131Z,5.71
2024-01-16T17:49:21.536Z,5.72
2024-01-16T17:51:24.705Z,5.81
2024-01-16T17:53:29.146Z,5.60
2024-01-16T17:55:34.232Z,5.69
2024-01-16T17:57:39.260Z,5.64
2024-01-16T17:59:44.127Z,5.60
2024-01-16T18:01:47.950Z,5.73
2024-01-16T18:03:49.895Z,5.55
2024-01-16T18:05:51.628Z,5.58
2024-01-16T18:07:53.474Z,5.68
2024-01-16T18:09:55.392Z,5.63
2024-01-16T18:11:58.899Z,5.58
2024-01-16T18:14:00.755Z,5.60
2024-01-16T18:16:06.246Z,5.68
2024-01-16T18:18:11.080Z,5.63
2024-01-16T18:20:21.913Z,5.62
2024-01-16T18:22:23.560Z,5.69
2024-01-16T18:24:26.018Z,5.68
2024-01-16T18:26:31.256Z,5.68
2024-01-16T18:28:33.342Z,5.62
2024-01-16T18:30:36.083Z,5.21
2024-01-16T18:32:48.223Z,5.40
2024-01-16T18:34:52.810Z,5.33
2024-01-16T18:36:55.379Z,5.29
2024-01-16T18:39:05.613Z,5.41
2024-01-16T18:41:25.606Z,5.33
2024-01-16T18:43:29.158Z,5.39
2024-01-16T18:45:31.108Z,5.40
2024-01-16T18:47:33.231Z,5.45
2024-01-16T18:49:35.134Z,5.27
2024-01-16T18:51:36.893Z,5.27
2024-01-16T18:53:40.304Z,5.38
2024-01-16T18:55:42.067Z,5.31
2024-01-16T18:57:44.183Z,5.37
2024-01-16T18:59:49.114Z,5.18
2024-01-16T19:01:51.351Z,5.17
2024-01-16T19:03:53.119Z,5.24
2024-01-16T19:05:57.700Z,5.17
2024-01-16T19:07:59.724Z,5.23
2024-01-16T19:10:03.104Z,5.13
2024-01-16T19:12:07.245Z,5.21
2024-01-16T19:14:09.142Z,5.21
2024-01-16T19:16:12.564Z,5.27
2024-01-16T19:18:14.444Z,5.23
2024-01-16T19:20:19.637Z,5.27
2024-01-16T19:22:21.478Z,5.31
2024-01-16T19:24:23.558Z,5.33
2024-01-16T19:26:25.363Z,5.42
2024-01-16T19:28:32.926Z,5.50
2024-01-16T19:30:35.131Z,5.38
2024-01-16T19:32:36.815Z,5.49
2024-01-16T19:34:38.563Z,5.57
2024-01-16T19:36:43.439Z,5.53
2024-01-16T19:38:45.278Z,5.58
2024-01-16T19:40:47.297Z,5.58
2024-01-16T19:42:49.004Z,5.57
2024-01-16T19:44:51.510Z,5.49
2024-01-16T19:46:54.330Z,5.56
2024-01-16T19:48:56.418Z,5.52
2024-01-16T19:50:58.347Z,5.37
2024-01-16T19:53:00.812Z,5.42
2024-01-16T19:55:06.675Z,5.39
2024-01-16T19:57:08.578Z,5.42
2024-01-16T19:59:11.588Z,5.50
2024-01-16T20:01:13.863Z,5.49
2024-01-16T20:03:16.235Z,5.47
2024-01-16T20:05:18.590Z,5.42
2024-01-16T20:07:20.559Z,5.37
2024-01-16T20:09:22.867Z,5.33
2024-01-16T20:11:32.602Z,5.42
2024-01-16T20:13:34.404Z,5.49
2024-01-16T20:15:36.184Z,5.46
2024-01-16T20:17:38.118Z,5.32
2024-01-16T20:19:40.860Z,5.45
2024-01-16T20:21:45.549Z,5.45
2024-01-16T20:23:47.249Z,5.41
2024-01-16T20:25:49.094Z,5.46
2024-01-16T20:27:52.624Z,5.48
2024-01-16T20:29:54.379Z,5.42
2024-01-16T20:31:57.435Z,5.48
2024-01-16T20:33:59.393Z,5.56
2024-01-16T20:36:01.732Z,5.46
2024-01-16T20:38:03.580Z,5.41
2024-01-16T20:40:06.271Z,5.48
2024-01-16T20:42:11.212Z,5.51
2024-01-16T20:44:16.209Z,5.45
2024-01-16T20:46:17.973Z,5.61
2024-01-16T20:48:19.709Z,5.66
2024-01-16T20:50:22.984Z,5.67
2024-01-16T20:52:24.835Z,5.71
2024-01-16T20:54:27.458Z,5.58
2024-01-16T20:56:29.143Z,5.71
2024-01-16T20:58:30.878Z,5.46
2024-01-16T21:00:35.249Z,5.60
2024-01-16T21:02:37.146Z,5.51
2024-01-16T21:04:38.918Z,5.63
2024-01-16T21:06:42.290Z,5.53
2024-01-16T21:08:44.248Z,5.46
2024-01-16T21:10:46.005Z,5.59
2024-01-16T21:12:47.903Z,5.58
2024-01-16T21:14:50.592Z,5.50
2024-01-16T21:16:53.070Z,5.47
2024-01-16T21:18:58.613Z,5.50
2024-01-16T21:21:01.036Z,5.42
2024-01-16T21:23:02.865Z,5.36
2024-01-16T21:25:06.558Z,5.30
2024-01-16T21:27:08.340Z,5.39
2024-01-16T21:29:10.096Z,5.39
2024-01-16T21:31:11.883Z,5.37
2024-01-16T21:33:15.271Z,5.36
2024-01-16T21:35:19.723Z,5.47
2024-01-16T21:37:21.937Z,5.40
2024-01-16T21:39:23.658Z,5.47
2024-01-16T21:41:27.471Z,5.35
2024-01-16T21:43:29.364Z,5.26
2024-01-16T21:45:31.292Z,5.32
2024-01-16T21:47:34.228Z,5.35
2024-01-16T21:49:36.143Z,5.26
2024-01-16T21:51:38.204Z,5.37
2024-01-16T21:53:40.346Z,5.42
2024-01-16T21:55:42.767Z,5.41
2024-01-16T21:57:45.622Z,5.43
2024-01-16T21:59:47.986Z,5.43
2024-01-16T22:01:51.603Z,5.33
2024-01-16T22:03:53.637Z,5.42
2024-01-16T22:05:58.251Z,5.39
2024-01-16T22:08:00.518Z,5.42
2024-01-16T22:10:02.187Z,5.52
2024-01-16T22:12:04.647Z,5.55
2024-01-16T22:14:08.680Z,5.59
2024-01-16T22:16:12.351Z,5.63
2024-01-16T22:18:14.207Z,5.61
2024-01-16T22:20:17.549Z,5.58
2024-01-16T22:22:19.194Z,5.54
2024-01-16T22:24:22.376Z,5.66
2024-01-16T22:26:24.106Z,5.58
2024-01-16T22:28:25.763Z,5.63
2024-01-16T22:30:27.665Z,5.68
2024-01-16T22:32:30.458Z,5.62
2024-01-16T22:34:32.951Z,5.61
2024-01-16T22:36:38.892Z,5.59
2024-01-16T22:38:43.838Z,5.59
2024-01-16T22:40:45.958Z,5.44
2024-01-16T22:42:50.607Z,5.53
2024-01-16T22:44:52.281Z,5.54
2024-01-16T22:46:59.830Z,5.47
2024-01-16T22:49:01.772Z,5.57
2024-01-16T22:51:03.828Z,5.57
2024-01-16T22:53:05.793Z,5.60
2024-01-16T22:55:07.926Z,5.58
2024-01-16T22:57:09.744Z,5.54
2024-01-16T22:59:11.518Z,5.59
2024-01-16T23:01:15.876Z,5.56
2024-01-16T23:03:17.799Z,5.47
2024-01-16T23:05:21.220Z,5.52
2024-01-16T23:07:23.043Z,5.49
2024-01-16T23:09:26.449Z,5.57
2024-01-16T23:11:28.590Z,5.55
2024-01-16T23:13:31.328Z,5.50
2024-01-16T23:15:33.062Z,5.51
2024-01-16T23:17:35.212Z,5.48
2024-01-16T23:19:37.045Z,5.54
2024-01-16T23:21:39.452Z,5.51
2024-01-16T23:23:45.024Z,5.48
2024-01-16T23:25:47.267Z,5.36
2024-01-16T23:27:51.072Z,5.39
2024-01-16T23:29:52.915Z,5.44
2024-01-16T23:31:54.618Z,5.38
2024-01-16T23:33:56.422Z,5.37
2024-01-16T23:35:58.641Z,5.34
2024-01-16T23:38:01.409Z,5.28
2024-01-16T23:40:06.079Z,5.28
2024-01-16T23:42:15.045Z,5.22
2024-01-16T23:44:17.144Z,5.25
2024-01-16T23:46:20.668Z,5.21
2024-01-16T23:48:22.505Z,5.25
2024-01-16T23:50:25.267Z,5.28
2024-01-16T23:52:27.078Z,5.31
2024-01-16T23:54:28.909Z,5.35
2024-01-16T23:56:30.756Z,5.38
2024-01-16T23:58:32.501Z,5.40
